Time;durP1;ratioP1;P1;durP2;ratioP2;P2;SDS_P1;SDS_P2;PMS_P1;PMS_P2;Temp;Humidity;BMP_temperature;BMP_pressure;BME280_temperature;BME280_humidity;BME280_pressure;Samples;Min_cycle;Max_cycle;Signal;HPM_P1;HPM_P2
2022/11/12 00:01:19;;;;;;;90.57;40.25;;;6.20;99.90;;;;;;5042531;28;21242;-87
2022/11/12 00:04:03;;;;;;;87.55;40.53;;;6.10;99.90;;;;;;5032683;28;20039;-87
2022/11/12 00:06:47;;;;;;;96.75;41.67;;;6.20;99.90;;;;;;5044333;28;20036;-87
2022/11/12 00:09:31;;;;;;;95.63;40.83;;;6.30;99.90;;;;;;5045696;28;20082;-87
2022/11/12 00:12:15;;;;;;;96.10;40.88;;;6.30;99.90;;;;;;5045938;28;20555;-87
2022/11/12 00:14:59;;;;;;;91.60;40.88;;;6.30;99.90;;;;;;5039505;28;20499;-87
2022/11/12 00:17:44;;;;;;;98.90;41.97;;;6.30;99.90;;;;;;5049533;28;20048;-87
2022/11/12 00:20:28;;;;;;;80.53;38.22;;;6.20;99.90;;;;;;5038431;28;20472;-87
2022/11/12 00:23:12;;;;;;;91.25;39.13;;;6.00;99.90;;;;;;5036978;28;20447;-87
2022/11/12 00:26:00;;;;;;;85.22;38.67;;;6.00;99.90;;;;;;5031321;28;20036;-87
2022/11/12 00:28:44;;;;;;;81.85;37.08;;;5.80;99.90;;;;;;5044934;28;20427;-87
2022/11/12 00:31:28;;;;;;;86.00;37.53;;;5.70;99.90;;;;;;5046796;28;20040;-86
2022/11/12 00:34:12;;;;;;;78.78;36.05;;;5.50;99.90;;;;;;5040675;28;20507;-87
2022/11/12 00:36:56;;;;;;;89.15;38.83;;;5.40;99.90;;;;;;5038162;28;20048;-86
2022/11/12 00:39:41;;;;;;;79.38;35.65;;;5.50;99.90;;;;;;5049168;28;20044;-87
2022/11/12 00:42:25;;;;;;;77.85;34.35;;;5.50;99.90;;;;;;5041810;28;20044;-87
2022/11/12 00:45:09;;;;;;;90.30;37.75;;;5.30;99.90;;;;;;5036710;28;20091;-87
2022/11/12 00:47:55;;;;;;;82.88;37.03;;;5.10;99.90;;;;;;5044290;28;20032;-87
2022/11/12 00:50:39;;;;;;;89.05;37.50;;;5.10;99.90;;;;;;5040365;28;20106;-87
2022/11/12 00:53:24;;;;;;;83.80;36.65;;;4.90;99.90;;;;;;5031701;28;20087;-87
2022/11/12 00:56:08;;;;;;;85.45;38.50;;;4.80;99.90;;;;;;5039508;28;20060;-87
2022/11/12 00:58:53;;;;;;;87.47;36.58;;;4.70;99.90;;;;;;5043047;28;20502;-87
2022/11/12 01:01:38;;;;;;;85.50;37.42;;;4.70;99.90;;;;;;5051654;28;20443;-87
2022/11/12 01:04:22;;;;;;;85.85;36.95;;;4.60;99.90;;;;;;5041234;28;20404;-87
2022/11/12 01:07:14;;;;;;;89.35;36.13;;;4.50;99.90;;;;;;5035173;28;20554;-87
2022/11/12 01:09:58;;;;;;;72.38;33.90;;;4.40;99.90;;;;;;5032328;28;20376;-87
2022/11/12 01:13:35;;;;;;;71.88;33.03;;;4.30;99.90;;;;;;5043374;28;20086;-86
2022/11/12 01:16:22;;;;;;;83.95;36.72;;;4.30;99.90;;;;;;5041343;28;20047;-87
2022/11/12 01:19:09;;;;;;;82.57;36.10;;;4.20;99.90;;;;;;5035541;28;20047;-87
2022/11/12 01:21:54;;;;;;;84.38;36.25;;;4.20;99.90;;;;;;5044289;28;20140;-87
2022/11/12 01:24:38;;;;;;;78.70;34.38;;;4.20;99.90;;;;;;5044530;28;20535;-87
2022/11/12 01:27:22;;;;;;;72.60;33.80;;;4.10;99.90;;;;;;5045069;28;20040;-87
2022/11/12 01:30:07;;;;;;;89.65;35.15;;;4.00;99.90;;;;;;5038383;28;20380;-87
2022/11/12 01:32:51;;;;;;;88.60;36.53;;;4.10;99.90;;;;;;5041967;28;20095;-86
2022/11/12 01:35:35;;;;;;;84.78;38.42;;;4.00;99.90;;;;;;5049286;28;20047;-87
2022/11/12 01:39:00;;;;;;;88.90;37.10;;;4.00;99.90;;;;;;5041369;28;20033;-87
2022/11/12 01:41:44;;;;;;;97.20;39.92;;;4.20;99.90;;;;;;5041824;28;20099;-87
2022/11/12 01:44:37;;;;;;;96.10;38.53;;;4.20;99.90;;;;;;5050468;28;20039;-88
2022/11/12 01:47:31;;;;;;;92.63;40.55;;;4.10;99.90;;;;;;5046662;28;20043;-87
2022/11/12 01:50:33;;;;;;;98.28;41.88;;;4.30;99.90;;;;;;5044507;28;20091;-87
2022/11/12 01:53:19;;;;;;;98.55;39.95;;;4.40;99.90;;;;;;5035300;28;20100;-87
2022/11/12 01:56:05;;;;;;;97.50;37.95;;;4.30;99.90;;;;;;5037399;28;20039;-87
2022/11/12 01:59:14;;;;;;;89.28;39.63;;;4.10;99.90;;;;;;5047485;28;20098;-87
2022/11/12 02:01:58;;;;;;;86.30;35.22;;;4.00;99.90;;;;;;5041248;28;20074;-87
2022/11/12 02:04:44;;;;;;;86.30;37.65;;;3.80;99.90;;;;;;5053436;28;20044;-87
2022/11/12 02:07:30;;;;;;;81.22;34.63;;;3.80;99.90;;;;;;5045169;28;20045;-87
2022/11/12 02:10:14;;;;;;;91.57;37.15;;;3.70;99.90;;;;;;5038005;28;20040;-87
2022/11/12 02:16:03;;;;;;;99.47;40.75;;;3.70;99.90;;;;;;5048631;28;20047;-87
2022/11/12 02:18:47;;;;;;;100.60;43.45;;;3.70;99.90;;;;;;5046269;28;20040;-87
2022/11/12 02:21:32;;;;;;;104.03;46.08;;;3.90;99.90;;;;;;5049711;28;20044;-87
2022/11/12 02:24:16;;;;;;;102.55;46.40;;;3.90;99.90;;;;;;5044740;28;20069;-88
2022/11/12 02:27:00;;;;;;;108.45;45.78;;;3.90;99.90;;;;;;5034445;28;20040;-87
2022/11/12 02:29:47;;;;;;;101.40;45.25;;;3.90;99.90;;;;;;5045491;28;20029;-87
2022/11/12 02:32:33;;;;;;;100.93;44.08;;;3.80;99.90;;;;;;5047504;28;20119;-87
2022/11/12 02:35:17;;;;;;;94.57;41.70;;;3.70;99.90;;;;;;5036048;28;20067;-88
2022/11/12 02:38:02;;;;;;;93.18;41.72;;;3.60;99.90;;;;;;5033817;28;20060;-87
2022/11/12 02:40:46;;;;;;;97.82;42.15;;;3.40;99.90;;;;;;5046239;28;20052;-87
2022/11/12 02:43:30;;;;;;;98.55;42.30;;;3.40;99.90;;;;;;5052594;28;20095;-87
2022/11/12 02:46:14;;;;;;;91.07;40.20;;;3.30;99.90;;;;;;5043113;28;20127;-87
2022/11/12 02:48:59;;;;;;;90.20;40.30;;;3.30;99.90;;;;;;5038672;28;20041;-87
2022/11/12 02:51:58;;;;;;;88.20;39.10;;;3.40;99.90;;;;;;5045421;28;20071;-87
2022/11/12 02:55:32;;;;;;;85.88;37.25;;;3.30;99.90;;;;;;5044679;28;20491;-87
2022/11/12 02:58:16;;;;;;;73.85;33.63;;;3.30;99.90;;;;;;5044029;28;20499;-87
2022/11/12 03:01:00;;;;;;;73.30;34.78;;;3.20;99.90;;;;;;5037152;28;20476;-87
2022/11/12 03:03:44;;;;;;;80.35;35.88;;;3.10;99.90;;;;;;5047113;28;20124;-87
2022/11/12 03:06:29;;;;;;;82.50;36.15;;;3.10;99.90;;;;;;5047314;28;20048;-87
2022/11/12 03:09:13;;;;;;;73.07;34.08;;;3.00;99.90;;;;;;5042922;28;20037;-87
2022/11/12 03:11:57;;;;;;;76.25;34.35;;;2.90;99.90;;;;;;5038444;28;20385;-85
2022/11/12 03:14:41;;;;;;;75.95;36.58;;;2.80;99.90;;;;;;5043100;28;20048;-87
2022/11/12 03:17:25;;;;;;;72.43;33.92;;;2.90;99.90;;;;;;5047108;28;20632;-87
2022/11/12 03:20:10;;;;;;;80.88;34.78;;;2.80;99.90;;;;;;5036310;28;20094;-87
2022/11/12 03:23:06;;;;;;;83.50;36.40;;;2.70;99.90;;;;;;5043218;28;20051;-87
2022/11/12 03:25:50;;;;;;;81.13;33.42;;;2.70;99.90;;;;;;5036032;28;20523;-87
2022/11/12 03:28:34;;;;;;;78.35;35.53;;;2.70;99.90;;;;;;5050838;28;20036;-87
2022/11/12 03:31:18;;;;;;;90.05;36.95;;;2.60;99.90;;;;;;5043413;28;20083;-87
2022/11/12 03:34:02;;;;;;;86.72;36.58;;;2.60;99.90;;;;;;5036932;28;20056;-87
2022/11/12 03:36:46;;;;;;;80.22;36.15;;;2.60;99.90;;;;;;5044844;28;20045;-87
2022/11/12 03:39:30;;;;;;;72.85;33.83;;;2.60;99.90;;;;;;5046772;28;20060;-87
2022/11/12 03:42:14;;;;;;;77.43;33.80;;;2.50;99.90;;;;;;5038661;28;20384;-87
2022/11/12 03:44:58;;;;;;;83.18;36.70;;;2.40;99.90;;;;;;5044570;28;20095;-87
2022/11/12 03:47:44;;;;;;;85.53;37.67;;;2.40;99.90;;;;;;5046057;28;20433;-87
2022/11/12 03:50:29;;;;;;;82.90;35.97;;;2.40;99.90;;;;;;5046240;28;20090;-87
2022/11/12 03:53:13;;;;;;;94.10;36.70;;;2.40;99.90;;;;;;5040488;28;20531;-87
2022/11/12 03:56:01;;;;;;;85.95;37.13;;;2.40;99.90;;;;;;5034897;28;20044;-87
2022/11/12 03:58:45;;;;;;;95.07;38.25;;;2.40;99.90;;;;;;5042866;28;20562;-87
2022/11/12 04:01:29;;;;;;;99.00;42.67;;;2.50;99.90;;;;;;5046249;28;20118;-87
2022/11/12 04:04:13;;;;;;;94.60;39.58;;;2.60;99.90;;;;;;5047866;28;20130;-87
2022/11/12 04:10:00;;;;;;;110.07;42.78;;;2.70;99.90;;;;;;5032259;28;20431;-86
2022/11/12 04:21:49;;;;;;;96.53;41.90;;;2.70;99.90;;;;;;5045783;28;20127;-87
2022/11/12 04:22:04;;;;;;;93.20;40.75;;;2.80;99.90;;;;;;5035758;28;20503;-87
2022/11/12 04:27:51;;;;;;;92.15;39.67;;;2.70;99.90;;;;;;5044882;28;20122;-87
2022/11/12 04:30:35;;;;;;;99.00;38.85;;;2.60;99.90;;;;;;5046182;28;20048;-87
2022/11/12 04:33:19;;;;;;;85.00;39.05;;;2.50;99.90;;;;;;5042894;28;20036;-87
2022/11/12 04:39:52;;;;;;;100.60;41.53;;;2.60;99.90;;;;;;5034099;28;20146;-87
2022/11/12 04:45:42;;;;;;;97.18;40.70;;;2.80;99.90;;;;;;5047154;28;20055;-87
2022/11/12 04:48:27;;;;;;;109.38;41.97;;;2.80;99.90;;;;;;5037818;28;20036;-87
2022/11/12 04:52:04;;;;;;;101.38;42.40;;;2.90;99.90;;;;;;5036607;28;20088;-88
2022/11/12 04:54:48;;;;;;;111.93;43.28;;;3.00;99.90;;;;;;5044804;28;20044;-87
2022/11/12 04:57:33;;;;;;;101.53;41.10;;;3.10;99.90;;;;;;5045990;28;20043;-87
2022/11/12 05:00:17;;;;;;;106.25;43.55;;;3.10;99.90;;;;;;5042504;28;20095;-87
2022/11/12 05:03:01;;;;;;;95.75;42.72;;;3.20;99.90;;;;;;5032354;28;20095;-87
2022/11/12 05:05:45;;;;;;;109.93;45.03;;;3.30;99.90;;;;;;5045750;28;20041;-87
2022/11/12 05:08:29;;;;;;;104.47;44.80;;;3.40;99.90;;;;;;5045080;28;20432;-87
2022/11/12 05:11:13;;;;;;;101.32;42.15;;;3.50;99.90;;;;;;5039422;28;20450;-87
2022/11/12 05:13:57;;;;;;;101.53;43.03;;;3.50;99.90;;;;;;5037170;28;20424;-87
2022/11/12 05:16:41;;;;;;;109.60;47.38;;;3.50;99.90;;;;;;5047475;28;20040;-87
2022/11/12 05:19:26;;;;;;;108.82;47.70;;;3.50;99.90;;;;;;5041071;28;20480;-87
2022/11/12 05:22:10;;;;;;;112.00;47.63;;;3.50;99.90;;;;;;5035552;28;20040;-87
2022/11/12 05:24:54;;;;;;;101.05;44.60;;;3.50;99.90;;;;;;5043772;28;20044;-87
2022/11/12 05:27:38;;;;;;;97.38;40.20;;;3.50;99.90;;;;;;5042264;28;20076;-87
2022/11/12 05:30:22;;;;;;;93.43;41.17;;;3.50;99.90;;;;;;5044322;28;20066;-87
2022/11/12 05:33:06;;;;;;;90.97;40.08;;;3.60;99.90;;;;;;5044360;28;20056;-87
2022/11/12 05:35:51;;;;;;;100.65;41.63;;;3.60;99.90;;;;;;5041400;28;20455;-87
2022/11/12 05:39:19;;;;;;;100.10;41.13;;;3.50;99.90;;;;;;5048826;28;20071;-88
2022/11/12 05:42:04;;;;;;;94.40;41.25;;;3.50;99.90;;;;;;5033913;28;20044;-87
2022/11/12 05:44:48;;;;;;;109.97;45.08;;;3.50;99.90;;;;;;5042516;28;20396;-87
2022/11/12 05:47:32;;;;;;;132.77;51.42;;;3.50;99.90;;;;;;5043682;28;20047;-87
2022/11/12 05:50:16;;;;;;;105.57;44.53;;;3.70;99.90;;;;;;5040651;28;20102;-87
2022/11/12 05:53:01;;;;;;;99.80;41.75;;;3.70;99.90;;;;;;5036022;28;20567;-87
2022/11/12 05:55:44;;;;;;;81.78;36.67;;;3.70;99.90;;;;;;5049457;28;20496;-87
2022/11/12 05:58:30;;;;;;;72.85;32.97;;;3.60;99.90;;;;;;5041170;28;20044;-87
2022/11/12 06:01:14;;;;;;;77.07;31.98;;;3.50;99.90;;;;;;5037768;28;20089;-87
2022/11/12 06:03:58;;;;;;;73.78;33.35;;;3.50;99.90;;;;;;5032096;28;20043;-87
2022/11/12 06:06:43;;;;;;;70.43;30.83;;;3.50;99.90;;;;;;5045962;28;20090;-87
2022/11/12 06:09:27;;;;;;;64.00;27.52;;;3.40;99.90;;;;;;5036497;28;20044;-87
2022/11/12 06:12:11;;;;;;;82.20;33.03;;;3.40;99.90;;;;;;5035764;28;20079;-86
2022/11/12 06:14:55;;;;;;;70.82;31.80;;;3.30;99.90;;;;;;5043927;28;20156;-87
2022/11/12 06:17:40;;;;;;;113.03;42.53;;;3.30;99.90;;;;;;5043760;28;20063;-87
2022/11/12 06:20:24;;;;;;;192.88;61.63;;;3.30;99.90;;;;;;5043638;28;20542;-86
2022/11/12 06:23:09;;;;;;;136.40;46.35;;;3.40;99.90;;;;;;5043624;28;20082;-86
2022/11/12 06:25:53;;;;;;;85.38;35.13;;;3.50;99.90;;;;;;5041312;28;20044;-87
2022/11/12 06:28:37;;;;;;;65.13;29.83;;;3.50;99.90;;;;;;5049301;28;20392;-87
2022/11/12 06:31:21;;;;;;;63.45;28.90;;;3.40;99.90;;;;;;5028053;28;20079;-87
2022/11/12 06:34:05;;;;;;;81.45;32.92;;;3.30;99.90;;;;;;5034524;28;20044;-89
2022/11/12 06:36:50;;;;;;;85.18;31.75;;;3.20;99.90;;;;;;5045598;28;20079;-88
2022/11/12 06:39:34;;;;;;;72.93;29.67;;;3.10;99.90;;;;;;5047125;28;20405;-89
2022/11/12 06:42:18;;;;;;;66.40;27.73;;;3.00;99.90;;;;;;5048567;28;20047;-89
2022/11/12 06:48:49;;;;;;;68.72;27.98;;;2.80;99.90;;;;;;5046035;28;20072;-88
2022/11/12 06:51:34;;;;;;;68.63;29.05;;;2.70;99.90;;;;;;5045912;28;20079;-89
2022/11/12 06:54:19;;;;;;;61.22;28.80;;;2.70;99.90;;;;;;5042515;28;20051;-88
2022/11/12 06:57:03;;;;;;;82.97;36.85;;;2.70;99.90;;;;;;5046544;28;20106;-89
2022/11/12 06:59:47;;;;;;;79.22;37.03;;;2.70;99.90;;;;;;5043860;28;20037;-89
2022/11/12 07:02:31;;;;;;;81.00;37.80;;;2.70;99.90;;;;;;5030915;28;20063;-89
2022/11/12 07:05:15;;;;;;;82.25;40.67;;;2.80;99.90;;;;;;5033782;28;20079;-89
2022/11/12 07:07:59;;;;;;;79.07;39.13;;;2.80;99.90;;;;;;5034724;28;20060;-88
2022/11/12 07:10:43;;;;;;;70.47;31.00;;;2.90;99.90;;;;;;5033604;28;20040;-89
2022/11/12 07:13:32;;;;;;;64.10;29.92;;;3.00;99.90;;;;;;5032866;28;20436;-89
2022/11/12 07:16:17;;;;;;;97.07;42.03;;;3.00;99.90;;;;;;5034733;28;20052;-89
2022/11/12 07:19:02;;;;;;;101.53;53.20;;;3.00;99.90;;;;;;5031780;28;20055;-89
2022/11/12 07:21:46;;;;;;;99.68;49.53;;;3.10;99.90;;;;;;5034653;28;20090;-88
2022/11/12 07:24:30;;;;;;;101.10;49.47;;;3.20;99.90;;;;;;5033742;28;20091;-88
2022/11/12 07:27:14;;;;;;;85.53;41.13;;;3.30;99.90;;;;;;5034158;28;20044;-88
2022/11/12 07:30:00;;;;;;;82.63;37.67;;;3.40;99.90;;;;;;5026054;28;20087;-88
2022/11/12 07:32:44;;;;;;;72.47;36.33;;;3.50;99.90;;;;;;5033109;28;20040;-88
2022/11/12 07:35:29;;;;;;;75.28;36.53;;;3.60;99.90;;;;;;5033635;28;20396;-88
2022/11/12 07:38:13;;;;;;;85.40;39.63;;;3.60;99.90;;;;;;5033351;28;20076;-88
2022/11/12 07:40:59;;;;;;;70.82;39.00;;;3.70;99.90;;;;;;5034369;28;20072;-88
2022/11/12 07:43:46;;;;;;;72.63;36.58;;;3.80;99.90;;;;;;5032289;28;20052;-87
2022/11/12 07:46:30;;;;;;;168.35;73.00;;;3.90;99.90;;;;;;5031880;28;20121;-88
2022/11/12 07:49:15;;;;;;;228.45;102.00;;;4.00;99.90;;;;;;5034302;28;20032;-88
2022/11/12 07:51:59;;;;;;;195.20;88.78;;;4.20;99.90;;;;;;5032816;28;20064;-88
2022/11/12 07:54:43;;;;;;;174.68;79.65;;;4.30;99.90;;;;;;5032963;28;20531;-88
2022/11/12 07:57:27;;;;;;;150.75;69.60;;;4.50;99.90;;;;;;5033497;28;20167;-88
2022/11/12 08:00:12;;;;;;;140.20;62.75;;;4.70;99.90;;;;;;5032235;28;20137;-88
2022/11/12 08:03:00;;;;;;;118.05;54.60;;;4.90;99.90;;;;;;5033473;28;20048;-87
2022/11/12 08:05:45;;;;;;;54.22;26.02;;;5.00;99.90;;;;;;5034500;28;20040;-88
2022/11/12 08:08:29;;;;;;;58.13;28.33;;;5.30;99.90;;;;;;5033229;28;20404;-89
2022/11/12 08:11:14;;;;;;;53.97;25.42;;;5.60;99.90;;;;;;5032532;28;20696;-88
2022/11/12 08:13:58;;;;;;;45.78;23.80;;;5.90;99.90;;;;;;5033098;28;20056;-88
2022/11/12 08:16:42;;;;;;;51.63;26.67;;;6.10;99.90;;;;;;5027962;28;20087;-89
2022/11/12 08:19:26;;;;;;;51.92;27.30;;;6.40;99.90;;;;;;5034080;28;20049;-88
2022/11/12 08:22:11;;;;;;;49.42;26.33;;;6.60;99.90;;;;;;5034243;28;20393;-89
2022/11/12 08:24:55;;;;;;;50.75;27.80;;;6.70;99.90;;;;;;5034651;28;20043;-88
2022/11/12 08:27:39;;;;;;;55.42;28.98;;;7.00;99.90;;;;;;5019906;28;20568;-89
2022/11/12 08:30:26;;;;;;;52.92;28.58;;;7.20;99.90;;;;;;5034296;28;20128;-89
2022/11/12 08:33:10;;;;;;;56.13;30.13;;;7.40;99.90;;;;;;5027204;28;20424;-90
2022/11/12 08:35:54;;;;;;;51.10;27.05;;;7.70;99.90;;;;;;5030433;28;20040;-88
2022/11/12 08:38:39;;;;;;;47.63;26.33;;;7.70;99.90;;;;;;5033838;28;20048;-89
2022/11/12 08:41:23;;;;;;;42.25;24.98;;;7.70;99.90;;;;;;5030973;28;20068;-88
2022/11/12 08:44:07;;;;;;;45.20;23.60;;;7.80;99.90;;;;;;5033372;28;20087;-87
2022/11/12 08:46:51;;;;;;;36.20;21.88;;;8.00;99.90;;;;;;5031985;28;20082;-88
2022/11/12 08:49:35;;;;;;;27.08;18.75;;;8.20;99.90;;;;;;5027653;28;20076;-88
2022/11/12 08:52:20;;;;;;;29.20;17.27;;;8.30;99.90;;;;;;5029787;28;20150;-89
2022/11/12 08:55:05;;;;;;;22.25;14.63;;;8.70;99.90;;;;;;5033897;28;20495;-89
2022/11/12 08:57:49;;;;;;;19.25;13.75;;;8.70;99.90;;;;;;5032742;28;20095;-90
2022/11/12 09:00:39;;;;;;;17.67;11.27;;;8.80;99.90;;;;;;5033310;28;20044;-90
2022/11/12 09:03:25;;;;;;;16.33;10.38;;;8.80;99.90;;;;;;5032639;28;20148;-91
2022/11/12 09:06:09;;;;;;;17.88;9.90;;;8.90;99.90;;;;;;5024914;28;20049;-90
2022/11/12 09:08:54;;;;;;;10.15;7.80;;;9.00;99.90;;;;;;5033467;28;20064;-90
2022/11/12 09:11:37;;;;;;;12.35;7.97;;;9.10;99.90;;;;;;5033134;28;20083;-91
2022/11/12 09:14:25;;;;;;;10.73;7.43;;;9.10;99.90;;;;;;5028428;28;20048;-91
2022/11/12 09:17:09;;;;;;;9.13;6.95;;;9.20;99.90;;;;;;5032928;28;20099;-90
2022/11/12 09:20:49;;;;;;;12.55;7.93;;;9.30;99.90;;;;;;5032491;28;20504;-90
2022/11/12 09:23:35;;;;;;;11.25;7.55;;;9.50;99.90;;;;;;5030025;28;20137;-90
2022/11/12 09:26:19;;;;;;;10.95;7.65;;;9.70;99.90;;;;;;5027986;28;20045;-90
2022/11/12 09:29:03;;;;;;;11.40;7.80;;;9.70;99.90;;;;;;5041554;28;20443;-88
2022/11/12 09:31:47;;;;;;;10.95;7.22;;;10.00;99.90;;;;;;5043243;28;20673;-88
2022/11/12 09:34:31;;;;;;;9.73;7.25;;;10.20;99.90;;;;;;5044381;28;20036;-88
2022/11/12 09:37:16;;;;;;;9.25;7.05;;;10.60;99.90;;;;;;5044994;28;20067;-89
2022/11/12 09:39:59;;;;;;;9.13;6.53;;;10.80;99.90;;;;;;5040306;28;20090;-88
2022/11/12 09:42:52;;;;;;;9.13;6.40;;;10.90;99.90;;;;;;5041845;28;20072;-88
2022/11/12 09:45:36;;;;;;;7.07;5.30;;;11.00;99.90;;;;;;5043375;28;20812;-89
2022/11/12 09:49:07;;;;;;;8.82;6.45;;;11.40;99.90;;;;;;5044572;28;20083;-89
2022/11/12 09:52:18;;;;;;;7.50;5.18;;;11.60;99.90;;;;;;5050066;28;20045;-89
2022/11/12 09:55:20;;;;;;;8.43;5.00;;;11.80;99.90;;;;;;5033195;28;20051;-89
2022/11/12 09:58:48;;;;;;;7.00;5.55;;;12.10;99.90;;;;;;5044178;28;20055;-90
2022/11/12 10:01:54;;;;;;;8.13;5.50;;;12.00;99.90;;;;;;5029243;28;20492;-90
2022/11/12 10:05:02;;;;;;;9.13;5.32;;;12.00;99.90;;;;;;5049758;28;20130;-89
2022/11/12 10:07:55;;;;;;;9.63;5.53;;;12.30;99.90;;;;;;5045259;28;20717;-90
2022/11/12 10:10:42;;;;;;;7.15;5.45;;;12.20;99.90;;;;;;5046497;28;20035;-89
2022/11/12 10:13:39;;;;;;;7.43;5.88;;;12.10;99.90;;;;;;5049375;28;20055;-89
2022/11/12 10:16:55;;;;;;;12.55;6.47;;;12.10;99.90;;;;;;5046613;28;20100;-89
2022/11/12 10:20:08;;;;;;;7.82;6.43;;;11.90;99.90;;;;;;5044849;28;20519;-89
2022/11/12 10:22:58;;;;;;;16.27;7.28;;;11.80;99.90;;;;;;5047898;28;20048;-89
2022/11/12 10:25:45;;;;;;;9.20;6.88;;;11.80;99.90;;;;;;5046671;28;20110;-89
2022/11/12 10:28:37;;;;;;;15.00;6.80;;;11.90;99.90;;;;;;5051271;28;20043;-89
2022/11/12 10:31:21;;;;;;;15.63;7.43;;;11.80;99.90;;;;;;5043846;28;20041;-89
2022/11/12 10:34:18;;;;;;;8.45;6.75;;;11.80;99.90;;;;;;5038637;28;20462;-88
2022/11/12 10:37:24;;;;;;;9.38;7.60;;;11.70;99.90;;;;;;5032952;28;20036;-89
2022/11/12 10:40:23;;;;;;;9.32;7.35;;;11.40;99.90;;;;;;5048429;28;20044;-89
2022/11/12 10:43:17;;;;;;;10.60;7.55;;;11.30;99.90;;;;;;5029665;28;20061;-89
2022/11/12 10:46:23;;;;;;;12.10;6.93;;;11.30;99.90;;;;;;5029555;28;20387;-88
2022/11/12 10:49:13;;;;;;;11.25;7.75;;;11.20;99.90;;;;;;5041358;28;20608;-89
2022/11/12 10:51:58;;;;;;;8.63;6.97;;;11.30;99.90;;;;;;5035118;28;20417;-88
2022/11/12 10:54:42;;;;;;;9.65;6.90;;;11.50;99.90;;;;;;5035821;28;20045;-88
2022/11/12 10:57:27;;;;;;;11.55;7.65;;;11.60;99.90;;;;;;5035504;28;20044;-90
2022/11/12 11:00:17;;;;;;;10.13;7.32;;;11.80;99.90;;;;;;5029472;28;20091;-89
2022/11/12 11:03:05;;;;;;;9.48;7.18;;;11.70;99.90;;;;;;5030364;28;20100;-89
2022/11/12 11:05:59;;;;;;;12.18;7.20;;;11.60;99.90;;;;;;5022159;28;20048;-89
2022/11/12 11:08:49;;;;;;;9.32;7.25;;;11.60;99.90;;;;;;5033518;28;20569;-89
2022/11/12 11:12:19;;;;;;;12.82;7.95;;;11.60;99.90;;;;;;5029272;28;20037;-89
2022/11/12 11:15:22;;;;;;;8.90;6.40;;;11.90;99.90;;;;;;5029259;28;20068;-89
2022/11/12 11:18:12;;;;;;;9.25;7.07;;;12.10;99.90;;;;;;5035163;28;20124;-89
2022/11/12 11:21:19;;;;;;;11.00;8.45;;;11.80;99.90;;;;;;5029429;28;20140;-89
2022/11/12 11:24:24;;;;;;;11.68;7.90;;;11.80;99.90;;;;;;5028510;28;20036;-88
2022/11/12 11:27:24;;;;;;;10.75;7.18;;;11.70;99.90;;;;;;5028593;28;20043;-89
2022/11/12 11:30:18;;;;;;;11.63;8.82;;;12.00;99.90;;;;;;5029681;28;20036;-89
2022/11/12 11:33:31;;;;;;;8.75;7.03;;;12.20;99.90;;;;;;5030806;28;20121;-89
2022/11/12 11:36:51;;;;;;;9.98;7.18;;;12.00;99.90;;;;;;5044435;28;20079;-88
2022/11/12 11:39:59;;;;;;;12.23;6.82;;;11.60;99.90;;;;;;5031220;28;20068;-89
2022/11/12 11:42:59;;;;;;;11.35;8.70;;;11.80;99.90;;;;;;5036154;28;20197;-88
2022/11/12 11:46:14;;;;;;;11.20;7.78;;;11.70;99.90;;;;;;5043540;28;20087;-88
2022/11/12 11:49:21;;;;;;;11.50;7.28;;;11.90;99.90;;;;;;5031603;28;20063;-89
2022/11/12 11:52:24;;;;;;;9.48;7.20;;;11.90;99.90;;;;;;5046566;28;20087;-88
2022/11/12 11:55:33;;;;;;;16.63;7.15;;;11.90;99.90;;;;;;5042221;28;20110;-88
2022/11/12 11:58:43;;;;;;;11.65;7.20;;;11.80;99.90;;;;;;5038742;28;20044;-88
2022/11/12 12:02:11;;;;;;;10.13;7.15;;;12.00;99.90;;;;;;5043889;28;20116;-89
2022/11/12 12:05:04;;;;;;;10.55;7.45;;;12.10;99.90;;;;;;5051662;28;20806;-89
2022/11/12 12:07:56;;;;;;;11.38;7.03;;;12.20;99.90;;;;;;5043777;28;20087;-88
2022/11/12 12:10:56;;;;;;;8.45;6.25;;;12.10;99.90;;;;;;5043784;28;20600;-89
2022/11/12 12:13:41;;;;;;;11.45;6.72;;;12.10;99.90;;;;;;5046112;28;20036;-89
2022/11/12 12:16:51;;;;;;;8.25;6.13;;;12.20;99.90;;;;;;5045083;28;20079;-88
2022/11/12 12:19:53;;;;;;;9.23;5.90;;;12.20;99.90;;;;;;5039884;28;20125;-88
2022/11/12 12:22:44;;;;;;;9.75;5.75;;;12.20;99.90;;;;;;5045293;28;20056;-88
2022/11/12 12:25:39;;;;;;;7.40;5.50;;;12.20;99.90;;;;;;5045517;28;20044;-89
2022/11/12 12:28:38;;;;;;;8.90;5.97;;;11.90;99.90;;;;;;5043040;28;20166;-89
2022/11/12 12:31:28;;;;;;;10.55;5.53;;;11.90;99.90;;;;;;5042837;28;20056;-88
2022/11/12 12:34:28;;;;;;;7.55;5.38;;;12.00;99.90;;;;;;5036669;28;20424;-88
2022/11/12 12:38:00;;;;;;;6.97;5.68;;;11.90;99.90;;;;;;5035871;28;20553;-88
2022/11/12 12:41:09;;;;;;;7.68;5.57;;;12.00;99.90;;;;;;5030913;28;20082;-88
2022/11/12 12:43:54;;;;;;;10.40;5.55;;;12.00;99.90;;;;;;5043556;28;20135;-88
2022/11/12 12:46:43;;;;;;;7.38;5.70;;;12.00;99.90;;;;;;5043264;28;20048;-89
2022/11/12 12:49:33;;;;;;;8.13;5.97;;;11.90;99.90;;;;;;5034118;28;20037;-88
2022/11/12 12:52:17;;;;;;;8.45;5.45;;;11.90;99.90;;;;;;5029204;28;20060;-88
2022/11/12 12:55:01;;;;;;;7.05;5.22;;;11.80;99.90;;;;;;5033303;28;20539;-89
2022/11/12 12:57:45;;;;;;;6.50;4.88;;;11.90;99.90;;;;;;5033188;28;20133;-88
2022/11/12 13:00:44;;;;;;;6.82;4.57;;;12.00;99.90;;;;;;5033574;28;20076;-89
2022/11/12 13:03:58;;;;;;;6.07;4.22;;;12.00;99.90;;;;;;5029747;28;20126;-88
2022/11/12 13:06:45;;;;;;;5.70;4.45;;;12.10;99.90;;;;;;5031930;28;20048;-89
2022/11/12 13:09:44;;;;;;;5.28;3.90;;;12.10;99.90;;;;;;5032350;28;20068;-89
2022/11/12 13:13:01;;;;;;;5.65;4.00;;;12.10;99.90;;;;;;5034286;28;20611;-89
2022/11/12 13:15:54;;;;;;;5.00;3.95;;;12.00;99.90;;;;;;5031096;28;20130;-89
2022/11/12 13:18:38;;;;;;;5.30;3.92;;;12.00;99.90;;;;;;5025010;28;20125;-90
2022/11/12 13:21:23;;;;;;;4.70;4.05;;;11.90;99.90;;;;;;5032075;28;20084;-89
2022/11/12 13:24:11;;;;;;;4.55;3.92;;;11.90;99.90;;;;;;5025246;28;20124;-89
2022/11/12 13:26:59;;;;;;;5.28;3.72;;;11.80;99.90;;;;;;5031411;28;20040;-89
2022/11/12 13:29:47;;;;;;;5.07;4.10;;;11.80;99.90;;;;;;5033619;28;20444;-89
2022/11/12 13:32:52;;;;;;;5.60;4.15;;;11.80;99.90;;;;;;5022273;28;20109;-89
2022/11/12 13:35:38;;;;;;;6.80;3.58;;;11.80;99.90;;;;;;5033601;28;20044;-88
2022/11/12 13:38:23;;;;;;;4.90;4.03;;;11.80;99.90;;;;;;5036389;28;20060;-87
2022/11/12 13:41:15;;;;;;;4.38;3.65;;;11.80;99.90;;;;;;5036818;28;20068;-88
2022/11/12 13:44:06;;;;;;;5.85;4.40;;;11.80;99.90;;;;;;5036310;28;20041;-88
2022/11/12 13:46:52;;;;;;;5.97;3.47;;;11.80;99.90;;;;;;5032357;28;20154;-88
2022/11/12 13:49:37;;;;;;;8.35;3.90;;;11.80;99.90;;;;;;5030932;28;20052;-88
2022/11/12 13:52:22;;;;;;;5.68;3.72;;;11.70;99.90;;;;;;5031428;28;20116;-88
2022/11/12 13:55:17;;;;;;;3.20;2.88;;;11.70;99.90;;;;;;5022736;28;20079;-88
2022/11/12 13:58:01;;;;;;;4.45;3.25;;;11.60;99.90;;;;;;5029343;28;20142;-88
2022/11/12 14:00:58;;;;;;;4.65;3.47;;;11.50;99.90;;;;;;5034224;28;20099;-88
2022/11/12 14:03:45;;;;;;;3.72;3.15;;;11.40;99.90;;;;;;5029992;28;20048;-88
2022/11/12 14:06:51;;;;;;;7.65;3.17;;;11.30;99.90;;;;;;5032924;28;20040;-88
2022/11/12 14:10:04;;;;;;;4.80;3.72;;;11.20;99.90;;;;;;5034385;28;20159;-88
2022/11/12 14:13:17;;;;;;;4.60;3.20;;;11.10;99.90;;;;;;5032962;28;20300;-87
2022/11/12 14:16:31;;;;;;;4.65;3.22;;;11.10;99.90;;;;;;5044042;28;20163;-88
2022/11/12 14:19:52;;;;;;;6.00;3.47;;;11.00;99.90;;;;;;5020462;28;20060;-88
2022/11/12 14:22:42;;;;;;;7.85;3.33;;;10.90;99.90;;;;;;5044288;28;20033;-87
2022/11/12 14:25:27;;;;;;;5.07;3.30;;;10.80;99.90;;;;;;5032457;28;20036;-88
2022/11/12 14:28:28;;;;;;;6.25;3.85;;;10.70;99.90;;;;;;5030940;28;20125;-88
2022/11/12 14:31:14;;;;;;;4.55;3.50;;;10.70;99.90;;;;;;5033018;28;20424;-87
2022/11/12 14:34:18;;;;;;;4.68;3.38;;;10.60;99.90;;;;;;5033494;28;20040;-88
2022/11/12 14:37:02;;;;;;;5.13;3.95;;;10.50;99.90;;;;;;5031598;28;20127;-88
2022/11/12 14:39:47;;;;;;;6.43;4.35;;;10.50;99.90;;;;;;5031121;28;20970;-88
2022/11/12 14:42:33;;;;;;;6.13;4.30;;;10.40;99.90;;;;;;5032608;28;20072;-88
2022/11/12 14:45:20;;;;;;;7.70;4.88;;;10.30;99.90;;;;;;5033080;28;20201;-87
2022/11/12 14:48:08;;;;;;;7.53;4.00;;;10.20;99.90;;;;;;5033462;28;20084;-88
2022/11/12 14:51:10;;;;;;;11.43;3.47;;;10.10;99.90;;;;;;5033606;28;20409;-88
2022/11/12 14:54:13;;;;;;;11.52;4.40;;;10.10;99.90;;;;;;5033094;28;20107;-88
2022/11/12 14:57:16;;;;;;;3.97;3.25;;;10.00;99.90;;;;;;5035148;28;20076;-88
2022/11/12 15:00:19;;;;;;;6.03;3.88;;;10.00;99.90;;;;;;5039796;28;20068;-88
2022/11/12 15:03:05;;;;;;;5.90;3.78;;;9.90;99.90;;;;;;5035959;28;20079;-88